Scaly Mountain, NC (28775)

8:00 AM EST on February 28, 2015 (GMT -0500)
APRSWXNET Scaly Mountain Outdoor CenterNC US | Change Station
CLOSE
Current Station
Personal Weather Station
Location: Scaly Mountain, NC
Elevation: 3604 ft
Nearby Weather Stations
Active Advisory: Special Statement

Elev 3604 ft 35.02 °N, 83.31 °W | Updated 27 minutes ago

Overcast
Overcast
27 °F
Feels Like 20 °F
N
6
Wind Variable Wind from ENE
Gusts 15.0 mph

Today
High -- | Low -- °F
--% Chance of Precip.
Yesterday
High -- | Low -- °F
Precip. -- in
7:04 AM 6:27 PM
Waxing Gibbous, 77% visible
Pressure 30.61 in
Visibility 10.0 miles
Clouds Scattered Clouds 3500 ft
Scattered Clouds 4000 ft
Windchill 20 °F
Dew Point 23 °F
Humidity 85%
Rainfall 0.01 in
Snow Depth Not available.
UV 0 out of 12
Pollen 4.10 out of 12
Air Quality Not available.
Flu Activity Not available.
METAR KTOC 281255Z AUTO 07008KT 10SM SCT035 SCT040 02/M07 A3061 RMK AO2 T00151075

More Conditions Fewer Conditions

Pressure 30.61 in
Visibility 10.0 miles
Clouds Scattered Clouds 3500 ft
Scattered Clouds 4000 ft
Windchill 20 °F
Dew Point 23 °F
Humidity 85%
Rainfall 0.01 in
Snow Depth Not available.
UV 0 out of 12
Pollen 4.10 out of 12
Air Quality Not available.
Flu Activity Not available.
METAR KTOC 281255Z AUTO 07008KT 10SM SCT035 SCT040 02/M07 A3061 RMK AO2 T00151075

More Conditions Fewer Conditions

10-Day Weather Forecast

Almanac

Astronomy

Feb. 28, 2015 Rise Set
Actual Time
Civil Twilight
Nautical Twilight
Astronomical Twilight
Moon
Length of Visible Light
Length of Day
Tomorrow will be .
, % of the Moon is Illuminated

Today's Extremes

State Highs State Lows

Community

WunderPhotos

Upload Photos

1,801,002 photos uploaded!

WunderBlogs® & News

Nearby

Air Quality

  Air Quality AQ Index Pollutant
Not available.

Snow Depth

Station Depth Elevation

Earthquake Activity

City Distance Mag. Time & Date
Minimum magnitude displayed is 2.5.

Coastal Water Temperatures

Place Temperature

Nearby Weather Stations

Special Statement
Statement as of 10:41 PM EST on February 27, 2015

... Areas of black ice possible through Saturday morning...

Temperatures will be below freezing across the North Carolina
mountains and northwest Piedmont through Saturday morning. This
will allow patches of black ice to form on Road surfaces as
melted snow and slush refreeze. Drivers on area roadways should be
prepared to encounter very slippery spots. Some areas on roads
that appear clear may be covered by a thin layer of ice.

Wimberley